Time;durP1;ratioP1;P1;durP2;ratioP2;P2;SDS_P1;SDS_P2;PMS_P1;PMS_P2;Temp;Humidity;BMP_temperature;BMP_pressure;BME280_temperature;BME280_humidity;BME280_pressure;Samples;Min_cycle;Max_cycle;Signal;HPM_P1;HPM_P2
2022/09/05 06:04:04;;;;;;;6.47;3.53;;;17.60;99.90;;;-144.05;70.72;125687.94;643273;23;20302;-82
2022/09/05 06:07:29;;;;;;;6.72;3.30;;;18.00;99.90;;;-144.05;68.86;125687.94;4971933;28;20130;-85
2022/09/05 06:11:06;;;;;;;8.32;3.78;;;18.50;99.90;;;-144.05;68.51;125687.94;4973451;28;20038;-87
2022/09/05 06:15:02;;;;;;;4.53;2.97;;;18.90;99.90;;;-144.05;65.56;125687.94;4974305;28;20029;-87
2022/09/05 06:18:08;;;;;;;5.20;3.00;;;19.30;99.90;;;-144.05;62.31;125687.94;4958812;28;20046;-86
2022/09/05 06:21:14;;;;;;;7.57;3.30;;;19.70;99.90;;;-144.05;60.19;125687.94;4990350;28;20522;-86
2022/09/05 06:24:11;;;;;;;3.85;2.88;;;20.00;99.90;;;-144.05;57.82;125687.94;4989781;28;20039;-87
2022/09/05 06:27:23;;;;;;;5.80;3.38;;;20.30;99.90;;;-144.05;56.50;125687.94;4974187;28;20034;-86
2022/09/05 06:30:19;;;;;;;6.35;2.65;;;20.70;99.90;;;-144.05;55.60;125687.94;4973669;28;20519;-85
2022/09/05 06:33:59;;;;;;;11.38;3.38;;;21.20;99.90;;;-144.05;54.14;125687.94;4974654;28;20034;-86
2022/09/05 06:37:15;;;;;;;4.63;2.22;;;21.60;99.90;;;-144.05;53.28;125687.94;4973593;28;20626;-86
2022/09/05 06:40:02;;;;;;;8.55;3.22;;;22.00;99.90;;;-144.05;52.85;125687.94;4989077;28;20561;-85
2022/09/05 06:43:02;;;;;;;5.72;2.92;;;22.40;99.90;;;-144.05;53.08;125687.94;4973245;28;20054;-87
2022/09/05 06:45:51;;;;;;;7.15;3.22;;;22.80;99.90;;;-144.05;52.51;125687.94;4989903;28;20066;-86
2022/09/05 06:48:48;;;;;;;5.85;2.47;;;23.10;99.90;;;-144.05;50.45;125687.94;4973918;28;20058;-85
2022/09/05 06:51:41;;;;;;;4.97;2.70;;;23.20;99.90;;;-144.05;50.37;125687.94;4974491;28;20027;-84
2022/09/05 06:55:16;;;;;;;4.32;2.70;;;23.30;99.90;;;-144.05;50.63;125687.94;4990620;28;20068;-84
2022/09/05 06:58:26;;;;;;;3.55;2.28;;;23.50;99.90;;;-144.05;49.81;125687.94;4947695;28;20041;-87
2022/09/05 07:00:57;;;;;;;3.97;2.40;;;23.70;99.90;;;-144.05;49.69;125687.94;4994350;28;20110;-86
2022/09/05 07:03:59;;;;;;;4.65;2.30;;;23.80;99.90;;;-144.05;48.99;125687.94;4989683;28;20478;-85
2022/09/05 07:06:47;;;;;;;2.85;2.17;;;23.90;99.90;;;-144.05;48.54;125687.94;4972884;28;20023;-87
2022/09/05 07:09:38;;;;;;;5.10;2.30;;;24.20;99.90;;;-144.05;47.19;125687.94;4973062;28;20023;-86
2022/09/05 07:12:28;;;;;;;6.40;2.13;;;24.60;99.90;;;-144.05;46.16;125687.94;4973093;28;20062;-84
2022/09/05 07:15:48;;;;;;;4.45;2.35;;;24.90;99.90;;;-144.05;45.01;125687.94;4970523;28;20396;-86
2022/09/05 07:19:03;;;;;;;7.65;2.22;;;25.00;99.90;;;-144.05;44.53;125687.94;4970592;28;20507;-85
2022/09/05 07:22:23;;;;;;;2.78;1.80;;;25.20;99.90;;;-144.05;44.06;125687.94;4970393;28;20039;-86
2022/09/05 07:24:53;;;;;;;2.88;1.63;;;25.20;99.90;;;-144.05;44.96;125687.94;4938653;29;20074;-85
2022/09/05 07:28:04;;;;;;;4.45;2.20;;;25.20;99.90;;;-144.05;43.99;125687.94;4954182;29;20035;-85
2022/09/05 07:30:34;;;;;;;4.05;2.08;;;25.40;99.90;;;-144.05;43.36;125687.94;4971661;28;20027;-87
2022/09/05 07:33:03;;;;;;;2.38;1.80;;;25.70;99.90;;;-144.05;42.87;125687.94;4972995;28;20476;-85
2022/09/05 07:35:37;;;;;;;2.72;1.77;;;25.90;99.90;;;-144.05;42.52;125687.94;4955993;28;20039;-85
2022/09/05 07:38:18;;;;;;;3.92;1.95;;;26.00;99.90;;;-144.05;41.77;125687.94;4958980;29;20034;-84
2022/09/05 07:41:09;;;;;;;5.80;2.10;;;26.20;99.90;;;-144.05;41.14;125687.94;4961924;28;20027;-84
2022/09/05 07:43:45;;;;;;;4.68;1.80;;;26.40;99.90;;;-144.05;41.01;125687.94;4976734;28;20170;-87
2022/09/05 07:46:19;;;;;;;;;;;26.60;99.90;;;-144.05;40.34;125687.94;4961909;29;20035;-84
2022/09/05 07:48:59;;;;;;;6.07;1.90;;;26.70;99.90;;;-144.05;40.60;125687.94;4982276;28;19909;-83
2022/09/05 07:51:31;;;;;;;4.78;2.05;;;26.80;99.90;;;-144.05;39.76;125687.94;4979074;28;20043;-85
2022/09/05 07:54:23;;;;;;;7.80;2.33;;;27.00;99.90;;;-144.05;39.51;125687.94;4991368;28;20043;-86
2022/09/05 07:57:02;;;;;;;2.85;1.90;;;27.10;99.90;;;-144.05;38.65;125687.94;4958056;29;20122;-86
2022/09/05 07:59:36;;;;;;;4.05;1.60;;;27.20;99.90;;;-144.05;38.41;125687.94;4972740;28;20047;-87
2022/09/05 08:02:10;;;;;;;3.53;1.60;;;27.30;99.90;;;-144.05;38.16;125687.94;4972907;28;20063;-84
2022/09/05 08:04:40;;;;;;;3.33;1.73;;;27.60;99.90;;;-144.05;37.70;125687.94;4957394;29;20039;-86
2022/09/05 08:07:37;;;;;;;4.43;1.92;;;27.60;99.90;;;-144.05;37.89;125687.94;4956511;29;20035;-85
2022/09/05 08:10:36;;;;;;;3.70;1.67;;;27.80;99.90;;;-144.05;36.97;125687.94;4956322;29;20606;-86
2022/09/05 08:13:13;;;;;;;4.40;1.88;;;28.00;99.90;;;-144.05;37.08;125687.94;4956530;28;20058;-85
2022/09/05 08:15:49;;;;;;;3.40;1.67;;;28.30;99.90;;;-144.05;36.41;125687.94;4956305;29;20035;-87
2022/09/05 08:18:44;;;;;;;2.67;1.85;;;28.40;99.90;;;-144.05;36.83;125687.94;4972406;28;20039;-86
2022/09/05 08:21:40;;;;;;;3.40;1.50;;;28.70;99.90;;;-144.05;35.50;125687.94;4973029;28;20023;-85
2022/09/05 08:24:25;;;;;;;3.35;1.50;;;28.60;99.90;;;-144.05;35.27;125687.94;4956386;28;20031;-85
2022/09/05 08:27:14;;;;;;;2.17;1.50;;;28.80;99.20;;;-144.05;35.50;125687.94;4973027;28;20445;-85
2022/09/05 08:30:00;;;;;;;2.40;1.40;;;28.90;99.30;;;-144.05;34.06;125687.94;4956514;29;20023;-87
2022/09/05 08:32:47;;;;;;;;;;;29.10;97.20;;;-144.05;33.66;125687.94;4957025;28;20038;-87
2022/09/05 08:35:33;;;;;;;5.13;1.83;;;29.30;97.60;;;-144.05;33.54;125687.94;4957070;29;19922;-85
2022/09/05 08:38:00;;;;;;;3.35;1.30;;;29.30;95.40;;;-144.05;33.60;125687.94;4956842;29;20399;-84
2022/09/05 08:40:47;;;;;;;3.33;1.60;;;29.20;94.90;;;-144.05;33.23;125687.94;4956755;29;20027;-85
2022/09/05 08:43:49;;;;;;;3.78;1.20;;;29.40;94.70;;;-144.05;32.91;125687.94;4956603;29;20038;-86
2022/09/05 08:46:36;;;;;;;3.22;1.35;;;29.50;93.90;;;-144.05;32.47;125687.94;4972981;28;20031;-86
2022/09/05 08:49:38;;;;;;;4.03;1.88;;;29.50;93.00;;;-144.05;32.58;125687.94;4957059;28;20053;-86
2022/09/05 08:52:34;;;;;;;7.90;1.70;;;29.70;93.10;;;-144.05;32.14;125687.94;4972925;28;20502;-86
2022/09/05 08:55:49;;;;;;;1.73;1.38;;;29.90;92.60;;;-144.05;31.10;125687.94;4974883;28;20352;-86
2022/09/05 08:59:15;;;;;;;3.20;1.50;;;30.10;90.70;;;-144.05;31.43;125687.94;4959294;28;20313;-88
2022/09/05 09:02:37;;;;;;;2.00;1.30;;;29.90;90.10;;;-144.05;31.41;125687.94;4981152;28;20078;-84
2022/09/05 09:05:36;;;;;;;2.85;1.50;;;29.90;88.70;;;-144.05;31.11;125687.94;4991182;28;20045;-84
2022/09/05 09:08:22;;;;;;;3.30;1.42;;;30.10;89.50;;;-144.05;31.32;125687.94;4972908;28;20035;-87
2022/09/05 09:10:58;;;;;;;2.60;1.52;;;30.10;87.50;;;-144.05;30.26;125687.94;4973038;28;20031;-87
2022/09/05 09:13:35;;;;;;;3.35;1.75;;;30.20;85.00;;;-144.05;30.40;125687.94;4959759;28;20035;-86
2022/09/05 09:16:32;;;;;;;3.03;1.52;;;30.30;86.20;;;-144.05;30.54;125687.94;4974763;28;20027;-84
2022/09/05 09:19:42;;;;;;;8.43;1.67;;;30.50;85.80;;;-144.05;29.98;125687.94;4975758;28;20491;-84
2022/09/05 09:22:38;;;;;;;2.72;1.30;;;30.50;83.00;;;-144.05;30.12;125687.94;4976074;28;20061;-87
2022/09/05 09:26:03;;;;;;;3.80;1.58;;;30.70;82.70;;;-144.05;30.09;125687.94;4991903;28;20509;-85
2022/09/05 09:28:49;;;;;;;3.80;1.52;;;30.90;81.60;;;-144.05;30.17;125687.94;4954284;28;20039;-87
2022/09/05 09:31:41;;;;;;;6.03;1.58;;;30.80;81.60;;;-144.05;29.65;125687.94;4991092;28;20054;-86
2022/09/05 09:34:25;;;;;;;2.30;1.20;;;31.00;79.80;;;-144.05;29.01;125687.94;4974331;28;20050;-87
2022/09/05 09:37:41;;;;;;;1.88;1.10;;;31.20;78.30;;;-144.05;28.62;125687.94;4990710;28;20147;-87
2022/09/05 09:40:50;;;;;;;2.83;1.33;;;31.50;76.30;;;-144.05;28.28;125687.94;4990676;28;20042;-86
2022/09/05 09:44:24;;;;;;;3.65;1.80;;;31.50;74.00;;;-144.05;29.08;125687.94;4990519;28;20026;-84
2022/09/05 09:46:52;;;;;;;2.17;1.50;;;31.30;74.80;;;-144.05;29.20;125687.94;4960831;28;20130;-86
2022/09/05 09:50:11;;;;;;;3.55;1.33;;;30.70;74.40;;;-144.05;30.47;125687.94;4973239;28;20259;-85
2022/09/05 09:53:56;;;;;;;2.75;1.70;;;29.90;78.20;;;-144.05;31.51;125687.94;4989209;28;20098;-85
2022/09/05 09:56:47;;;;;;;3.63;1.70;;;29.00;79.20;;;-144.05;31.12;125687.94;4941861;28;20172;-86
2022/09/05 10:00:04;;;;;;;3.55;1.50;;;28.90;78.60;;;-144.05;30.73;125687.94;4973397;28;20086;-86
2022/09/05 10:03:12;;;;;;;2.30;1.40;;;29.70;80.10;;;-144.05;29.51;125687.94;4974984;28;20550;-87
2022/09/05 10:06:10;;;;;;;3.28;1.10;;;30.60;76.50;;;-144.05;29.67;125687.94;4974679;28;20550;-86
2022/09/05 10:09:37;;;;;;;1.13;1.00;;;31.20;76.70;;;-144.05;28.38;125687.94;4973885;28;20041;-86
2022/09/05 10:12:53;;;;;;;3.22;1.30;;;31.20;73.50;;;-144.05;28.73;125687.94;4973165;28;20042;-84
2022/09/05 10:16:18;;;;;;;4.70;1.58;;;31.10;73.60;;;-144.05;29.47;125687.94;4964345;28;20031;-88
2022/09/05 10:19:40;;;;;;;2.65;1.20;;;30.50;73.70;;;-144.05;30.08;125687.94;4955142;29;20043;-85
2022/09/05 10:23:04;;;;;;;2.08;1.20;;;30.60;76.60;;;-144.05;29.38;125687.94;4971042;28;20051;-88
2022/09/05 10:26:20;;;;;;;;;;;;;;;;;;;;;
2022/09/05 10:29:34;;;;;;;2.92;1.45;;;31.70;72.00;;;-144.05;30.39;125687.94;4955883;29;20038;-89
2022/09/05 10:32:07;;;;;;;2.03;1.40;;;30.50;72.60;;;-144.05;30.65;125687.94;4953740;28;20032;-88
2022/09/05 10:35:15;;;;;;;4.28;1.30;;;29.90;74.70;;;-144.05;31.47;125687.94;4955103;28;20044;-89
2022/09/05 10:38:34;;;;;;;4.15;1.70;;;29.10;75.60;;;-144.05;32.04;125687.94;4955559;29;20031;-90
2022/09/05 10:41:18;;;;;;;3.42;1.48;;;28.60;76.40;;;-144.05;32.19;125687.94;4968246;28;20391;-88
2022/09/05 10:44:01;;;;;;;3.30;1.67;;;28.20;78.20;;;-144.05;32.74;125687.94;4970697;28;20039;-87
2022/09/05 10:47:34;;;;;;;2.83;1.45;;;28.00;80.00;;;-144.05;32.98;125687.94;4970619;28;20550;-88
2022/09/05 10:50:41;;;;;;;2.05;1.40;;;27.90;80.70;;;-144.05;32.92;125687.94;4970902;28;20463;-88
2022/09/05 10:54:06;;;;;;;1.77;1.10;;;27.90;81.90;;;-144.05;33.11;125687.94;4955675;28;20170;-87
2022/09/05 10:56:48;;;;;;;1.70;1.30;;;28.00;81.40;;;-144.05;32.12;125687.94;4971094;28;20032;-86
2022/09/05 11:00:06;;;;;;;1.25;1.05;;;28.50;79.80;;;-144.05;30.66;125687.94;4971067;28;20399;-85
2022/09/05 11:02:41;;;;;;;1.73;1.23;;;29.50;77.40;;;-144.05;29.24;125687.94;4957924;28;20027;-88
2022/09/05 11:05:29;;;;;;;1.42;1.15;;;30.50;75.40;;;-144.05;28.42;125687.94;4976917;28;20023;-83
2022/09/05 11:08:25;;;;;;;0.90;0.90;;;31.30;71.40;;;-144.05;27.54;125687.94;4976871;28;20031;-86
2022/09/05 11:11:21;;;;;;;3.17;1.40;;;31.50;68.20;;;-144.05;27.84;125687.94;4969798;28;20500;-87
2022/09/05 11:13:55;;;;;;;2.50;1.20;;;31.30;68.20;;;-144.05;28.19;125687.94;4984553;28;20035;-90
2022/09/05 11:17:29;;;;;;;1.33;1.00;;;31.50;68.00;;;-144.05;27.95;125687.94;4961887;28;20027;-86
2022/09/05 11:21:11;;;;;;;1.85;1.15;;;31.80;69.40;;;-144.05;26.83;125687.94;4961375;29;20035;-87
2022/09/05 11:23:55;;;;;;;1.60;0.95;;;32.40;66.00;;;-144.05;26.76;125687.94;4975838;28;20124;-88
2022/09/05 11:26:40;;;;;;;3.08;1.20;;;32.40;64.70;;;-144.05;27.41;125687.94;4974870;28;20483;-87
2022/09/05 11:29:26;;;;;;;3.22;1.35;;;32.50;66.10;;;-144.05;27.59;125687.94;4959969;28;20066;-86
2022/09/05 11:32:36;;;;;;;3.63;1.38;;;32.50;66.40;;;-144.05;27.24;125687.94;4974021;28;20027;-86
2022/09/05 11:35:35;;;;;;;1.73;1.00;;;32.70;64.20;;;-144.05;26.97;125687.94;4975358;28;20110;-87
2022/09/05 11:42:09;;;;;;;;;;;;;;;;;;;;;
2022/09/05 11:45:23;;;;;;;2.20;1.30;;;32.10;63.80;;;-144.05;28.17;125687.94;4960950;29;20456;-86
2022/09/05 11:48:19;;;;;;;2.60;1.00;;;31.80;66.80;;;-144.05;28.03;125687.94;4958821;29;20527;-89
2022/09/05 11:51:43;;;;;;;1.30;1.05;;;31.80;66.40;;;-144.05;28.75;125687.94;4958509;29;20089;-90
2022/09/05 11:54:53;;;;;;;2.45;1.10;;;31.50;69.40;;;-144.05;28.31;125687.94;4959016;28;20067;-87
2022/09/05 11:57:54;;;;;;;2.55;1.40;;;30.80;66.20;;;-144.05;29.01;125687.94;4958620;29;20031;-87
2022/09/05 12:00:50;;;;;;;3.17;1.50;;;30.80;67.30;;;-144.05;28.58;125687.94;4965950;28;20103;-86
2022/09/05 12:03:40;;;;;;;2.22;1.73;;;31.20;66.90;;;-144.05;27.54;125687.94;4958791;28;20027;-87
2022/09/05 12:06:57;;;;;;;2.60;1.35;;;31.70;63.50;;;-144.05;28.09;125687.94;4958059;29;20031;-84
2022/09/05 12:09:45;;;;;;;1.30;1.10;;;31.40;64.50;;;-144.05;28.23;125687.94;4958028;29;20028;-86
2022/09/05 12:12:50;;;;;;;2.53;1.52;;;31.60;65.80;;;-144.05;27.18;125687.94;4958120;28;20027;-84
2022/09/05 12:15:36;;;;;;;2.70;1.40;;;32.00;63.00;;;-144.05;27.09;125687.94;4958858;29;20420;-86
2022/09/05 12:18:40;;;;;;;1.92;1.33;;;32.40;62.90;;;-144.05;27.16;125687.94;4977511;28;20337;-86
2022/09/05 12:21:48;;;;;;;2.30;1.23;;;32.20;61.90;;;-144.05;26.88;125687.94;4959749;29;20042;-89
2022/09/05 12:24:43;;;;;;;3.65;1.30;;;32.20;61.10;;;-144.05;27.62;125687.94;4958616;28;20282;-87
2022/09/05 12:27:17;;;;;;;1.83;1.33;;;31.80;63.90;;;-144.05;27.47;125687.94;4959423;29;20530;-87
2022/09/05 12:30:01;;;;;;;3.90;1.63;;;31.80;62.70;;;-144.05;26.97;125687.94;4959182;28;20443;-88
2022/09/05 12:32:47;;;;;;;2.65;1.30;;;32.00;62.20;;;-144.05;27.43;125687.94;4981526;28;20043;-89
2022/09/05 12:35:35;;;;;;;;;;;32.10;62.10;;;-144.05;27.67;125687.94;4982379;28;20047;-87
2022/09/05 12:38:50;;;;;;;1.63;1.30;;;31.90;63.60;;;-144.05;27.11;125687.94;4967105;28;19924;-88
2022/09/05 12:41:37;;;;;;;4.22;1.50;;;31.60;61.30;;;-144.05;28.00;125687.94;4975636;28;20031;-87
2022/09/05 12:44:49;;;;;;;;;;;;;;;;;;;;;
2022/09/05 12:47:29;;;;;;;1.98;1.40;;;30.50;66.00;;;-144.05;28.33;125687.94;4965906;29;20103;-87
2022/09/05 12:50:41;;;;;;;1.70;1.40;;;30.80;65.60;;;-144.05;28.23;125687.94;4981564;28;20161;-88
2022/09/05 12:53:25;;;;;;;2.20;1.38;;;31.10;64.40;;;-144.05;27.75;125687.94;4965208;28;20051;-88
2022/09/05 12:56:22;;;;;;;2.10;1.20;;;31.80;64.40;;;-144.05;27.53;125687.94;4978283;28;20023;-88
2022/09/05 12:58:57;;;;;;;1.65;1.27;;;32.20;63.40;;;-144.05;27.16;125687.94;4965791;29;20138;-87
2022/09/05 13:01:42;;;;;;;1.70;1.50;;;32.40;63.00;;;-144.05;26.83;125687.94;4974206;28;20034;-86
2022/09/05 13:04:34;;;;;;;1.55;1.42;;;32.50;61.70;;;-144.05;27.07;125687.94;4973048;28;20049;-86
2022/09/05 13:07:15;;;;;;;2.85;1.63;;;32.50;62.20;;;-144.05;26.88;125687.94;4951390;29;20035;-92
2022/09/05 13:10:36;;;;;;;2.90;1.40;;;32.40;62.00;;;-144.05;26.97;125687.94;4966434;28;20048;-85
2022/09/05 13:13:41;;;;;;;2.55;1.13;;;32.50;61.40;;;-144.05;26.55;125687.94;4986042;28;20186;-85
2022/09/05 13:16:11;;;;;;;1.50;1.38;;;32.40;59.80;;;-144.05;26.46;125687.94;4972758;28;20059;-86
2022/09/05 13:18:45;;;;;;;2.28;1.50;;;32.50;59.10;;;-144.05;26.46;125687.94;4956507;28;20042;-87
2022/09/05 13:21:28;;;;;;;2.55;1.35;;;32.30;58.80;;;-144.05;26.75;125687.94;4972453;28;20121;-87
2022/09/05 13:24:26;;;;;;;2.05;1.40;;;32.40;60.00;;;-144.05;26.36;125687.94;4972100;28;20033;-89
2022/09/05 13:27:14;;;;;;;2.97;1.38;;;32.30;59.30;;;-144.05;27.49;125687.94;4972351;28;20027;-90
2022/09/05 13:30:07;;;;;;;;;;;;;;;;;;;;;
2022/09/05 13:32:48;;;;;;;2.20;1.52;;;32.10;59.90;;;-144.05;26.96;125687.94;4956414;28;20028;-88
2022/09/05 13:35:31;;;;;;;2.60;1.60;;;31.90;59.70;;;-144.05;27.44;125687.94;4955574;28;20027;-89
2022/09/05 13:38:15;;;;;;;1.60;1.00;;;31.70;59.60;;;-144.05;27.49;125687.94;4971710;28;20039;-87
2022/09/05 13:40:57;;;;;;;1.65;1.35;;;31.60;60.50;;;-144.05;27.08;125687.94;4954873;28;20027;-87
2022/09/05 13:43:37;;;;;;;3.10;1.25;;;31.60;59.70;;;-144.05;27.55;125687.94;4971163;28;20023;-87
2022/09/05 13:46:48;;;;;;;2.83;1.30;;;31.30;59.80;;;-144.05;27.81;125687.94;4971414;28;20038;-87
2022/09/05 13:49:33;;;;;;;2.47;1.60;;;31.10;61.30;;;-144.05;27.50;125687.94;4955009;29;20031;-87
2022/09/05 13:52:33;;;;;;;1.83;1.30;;;30.80;60.80;;;-144.05;27.54;125687.94;4957074;28;20063;-85
2022/09/05 13:55:22;;;;;;;2.15;1.20;;;30.90;61.00;;;-144.05;27.83;125687.94;4955077;29;20032;-87
2022/09/05 13:58:27;;;;;;;2.08;1.58;;;31.00;61.80;;;-144.05;27.58;125687.94;4954811;29;20093;-86
2022/09/05 14:01:50;;;;;;;2.65;1.50;;;31.10;60.30;;;-144.05;27.23;125687.94;4971506;28;20047;-89
2022/09/05 14:04:36;;;;;;;2.38;1.50;;;30.90;60.10;;;-144.05;28.08;125687.94;4956097;28;20054;-85
2022/09/05 14:07:43;;;;;;;3.40;1.30;;;30.70;61.30;;;-144.05;28.11;125687.94;4955341;29;20035;-86
2022/09/05 14:11:23;;;;;;;4.00;1.45;;;30.60;63.20;;;-144.05;28.03;125687.94;4959648;28;20035;-86
2022/09/05 14:14:27;;;;;;;1.52;1.05;;;30.50;61.90;;;-144.05;28.08;125687.94;4977427;28;20066;-87
2022/09/05 15:16:25;;;;;;;3.00;1.30;;;28.90;65.50;;;-144.05;29.64;125687.94;5010375;28;20050;-88
2022/09/05 15:41:26;;;;;;;2.00;1.60;;;28.30;65.70;;;-144.05;30.47;125687.94;5012761;28;20465;-87
2022/09/05 15:44:26;;;;;;;1.55;1.25;;;28.00;65.90;;;-144.05;30.14;125687.94;5012652;28;20065;-87
2022/09/05 15:47:06;;;;;;;1.58;1.33;;;27.90;64.90;;;-144.05;30.74;125687.94;5029511;28;20026;-86
2022/09/05 15:49:57;;;;;;;2.28;1.60;;;27.80;67.10;;;-144.05;31.08;125687.94;5013215;28;20038;-88
2022/09/05 15:52:22;;;;;;;1.10;1.00;;;27.70;67.30;;;-144.05;30.89;125687.94;5013339;28;20037;-86
2022/09/05 15:55:01;;;;;;;10.55;7.40;;;27.60;67.30;;;-144.05;31.53;125687.94;5013890;28;20037;-87
2022/09/05 15:57:57;;;;;;;4.75;4.13;;;27.50;69.00;;;-144.05;31.38;125687.94;5015010;28;20514;-86
2022/09/05 16:00:40;;;;;;;34.97;29.77;;;27.30;67.90;;;-144.05;32.30;125687.94;5016082;28;20026;-84
2022/09/05 16:03:26;;;;;;;58.97;49.20;;;27.00;71.10;;;-144.05;33.12;125687.94;5016787;28;20034;-85
2022/09/05 16:06:03;;;;;;;39.08;34.67;;;26.90;72.50;;;-144.05;33.68;125687.94;5015423;28;20037;-85
2022/09/05 16:08:45;;;;;;;20.48;17.20;;;26.60;73.60;;;-144.05;34.06;125687.94;5014754;28;20097;-85
2022/09/05 16:11:31;;;;;;;9.43;8.45;;;26.40;75.00;;;-144.05;34.45;125687.94;5018451;28;20324;-85
2022/09/05 16:14:25;;;;;;;4.28;3.78;;;26.20;75.20;;;-144.05;34.74;125687.94;5017162;28;20488;-85
2022/09/05 16:17:27;;;;;;;15.18;10.80;;;26.00;75.70;;;-144.05;34.97;125687.94;5011867;28;20209;-89
2022/09/05 16:20:35;;;;;;;7.07;5.70;;;25.80;76.30;;;-144.05;35.24;125687.94;5033012;28;20034;-87
2022/09/05 16:23:02;;;;;;;5.28;2.97;;;25.70;77.90;;;-144.05;35.59;125687.94;5017112;28;20053;-87
2022/09/05 16:25:39;;;;;;;3.67;2.50;;;25.60;78.00;;;-144.05;35.65;125687.94;5017036;28;20026;-88
2022/09/05 16:28:23;;;;;;;3.28;2.60;;;25.60;78.30;;;-144.05;35.61;125687.94;5015896;28;20033;-89
2022/09/05 16:31:00;;;;;;;5.63;2.47;;;25.50;77.70;;;-144.05;36.35;125687.94;5016601;28;20064;-88
2022/09/05 16:33:32;;;;;;;7.15;3.40;;;25.50;80.90;;;-144.05;36.97;125687.94;5016041;28;20021;-89
2022/09/05 16:36:32;;;;;;;13.32;4.60;;;25.50;82.00;;;-144.05;36.91;125687.94;5016360;28;20041;-86
2022/09/05 16:39:12;;;;;;;6.75;3.85;;;25.50;81.30;;;-144.05;36.97;125687.94;5015374;28;20037;-90
2022/09/05 16:42:04;;;;;;;4.55;3.00;;;25.60;82.50;;;-144.05;35.67;125687.94;5016269;28;20029;-89
2022/09/05 16:44:59;;;;;;;4.07;2.30;;;25.70;79.20;;;-144.05;35.29;125687.94;5016310;28;20490;-88
2022/09/05 16:47:38;;;;;;;3.70;1.85;;;25.90;78.50;;;-144.05;34.97;125687.94;5016517;28;20490;-88
2022/09/05 16:50:49;;;;;;;3.13;1.88;;;26.00;77.80;;;-144.05;34.61;125687.94;5015930;28;20069;-87
2022/09/05 16:53:52;;;;;;;3.17;1.98;;;26.10;76.90;;;-144.05;34.71;125687.94;5015382;28;20033;-86
2022/09/05 16:56:32;;;;;;;3.00;1.80;;;26.20;78.50;;;-144.05;35.05;125687.94;5018189;28;20049;-89
2022/09/05 16:59:10;;;;;;;3.20;2.17;;;26.20;78.50;;;-144.05;35.09;125687.94;5016783;28;20041;-85
2022/09/05 17:02:04;;;;;;;2.15;1.95;;;26.20;78.70;;;-144.05;35.55;125687.94;5032252;28;20034;-90
2022/09/05 17:05:22;;;;;;;3.78;2.40;;;26.10;79.80;;;-144.05;35.92;125687.94;5014342;28;20018;-86
2022/09/05 17:08:28;;;;;;;4.40;1.85;;;26.00;79.80;;;-144.05;34.74;125687.94;5015001;28;20025;-88
2022/09/05 17:11:06;;;;;;;2.20;1.77;;;26.00;77.60;;;-144.05;35.35;125687.94;5018250;28;20117;-88
2022/09/05 17:13:53;;;;;;;3.10;1.85;;;26.00;79.60;;;-144.05;34.82;125687.94;5019836;28;20034;-89
2022/09/05 17:16:47;;;;;;;3.75;1.70;;;25.90;77.30;;;-144.05;34.86;125687.94;5004268;28;20109;-86
2022/09/05 17:19:26;;;;;;;3.63;1.60;;;25.90;78.60;;;-144.05;35.56;125687.94;5031429;28;20030;-85
2022/09/05 17:22:30;;;;;;;3.95;1.98;;;25.70;79.80;;;-144.05;36.08;125687.94;5009733;28;20045;-88
2022/09/05 17:25:28;;;;;;;3.80;2.30;;;25.10;80.50;;;-144.05;36.52;125687.94;5002330;28;20030;-87
2022/09/05 17:27:54;;;;;;;4.65;2.30;;;25.30;81.40;;;-144.05;36.46;125687.94;4996915;28;20030;-87
2022/09/05 17:30:45;;;;;;;3.08;1.80;;;25.30;80.80;;;-144.05;36.36;125687.94;4993990;28;20399;-86
2022/09/05 17:33:28;;;;;;;2.25;1.70;;;25.10;81.90;;;-144.05;36.88;125687.94;4994563;28;20065;-89
2022/09/05 17:36:27;;;;;;;3.45;1.63;;;24.90;82.60;;;-144.05;36.88;125687.94;4994854;28;20038;-88
2022/09/05 17:39:38;;;;;;;3.17;1.80;;;24.80;82.20;;;-144.05;37.18;125687.94;4995778;28;20037;-88
2022/09/05 17:42:54;;;;;;;4.47;1.95;;;24.80;83.00;;;-144.05;37.17;125687.94;4992828;28;20110;-87
2022/09/05 17:46:27;;;;;;;3.25;2.10;;;24.60;82.80;;;-144.05;37.53;125687.94;4992802;28;20041;-87
2022/09/05 17:49:08;;;;;;;6.82;3.30;;;24.50;84.40;;;-144.05;38.20;125687.94;4992127;28;20038;-86
2022/09/05 17:51:40;;;;;;;4.78;2.15;;;24.40;85.60;;;-144.05;38.44;125687.94;4993102;28;20085;-86
2022/09/05 17:54:07;;;;;;;6.45;2.78;;;24.40;86.50;;;-144.05;38.63;125687.94;4992627;28;20030;-86
2022/09/05 17:56:42;;;;;;;4.90;3.00;;;24.30;87.10;;;-144.05;39.06;125687.94;4992691;28;20077;-86
2022/09/05 17:59:18;;;;;;;5.30;3.15;;;24.10;88.10;;;-144.05;40.05;125687.94;4992553;28;20034;-84
2022/09/05 18:02:02;;;;;;;6.43;3.40;;;24.00;90.40;;;-144.05;40.93;125687.94;4992727;28;20038;-87
2022/09/05 18:04:50;;;;;;;5.65;3.63;;;23.90;91.80;;;-144.05;41.24;125687.94;4992788;28;20026;-88
2022/09/05 18:07:25;;;;;;;6.32;3.75;;;23.70;91.70;;;-144.05;42.24;125687.94;4993232;28;20497;-87
2022/09/05 18:10:02;;;;;;;7.47;3.67;;;23.60;93.10;;;-144.05;42.27;125687.94;4992764;28;20027;-85
2022/09/05 18:12:38;;;;;;;7.10;3.30;;;23.60;93.40;;;-144.05;43.34;125687.94;4993472;28;20038;-88
2022/09/05 18:15:14;;;;;;;7.72;3.58;;;23.60;95.30;;;-144.05;44.35;125687.94;4994956;28;20359;-86
2022/09/05 18:17:45;;;;;;;8.00;3.17;;;23.60;97.80;;;-144.05;45.04;125687.94;4993153;28;20459;-88
2022/09/05 18:20:26;;;;;;;6.30;3.20;;;23.40;99.80;;;-144.05;45.47;125687.94;4993224;28;20034;-88
2022/09/05 18:23:40;;;;;;;6.28;3.00;;;23.30;99.90;;;-144.05;47.14;125687.94;4993280;28;20030;-87
2022/09/05 18:26:23;;;;;;;6.20;2.85;;;23.10;99.90;;;-144.05;47.31;125687.94;4992973;28;20030;-84
2022/09/05 18:29:23;;;;;;;6.90;3.05;;;22.90;99.90;;;-144.05;47.29;125687.94;4995700;28;20038;-86
2022/09/05 18:31:49;;;;;;;6.85;2.92;;;22.80;99.90;;;-144.05;46.88;125687.94;5009100;28;20113;-85
2022/09/05 18:34:18;;;;;;;6.05;2.67;;;22.60;99.90;;;-144.05;46.84;125687.94;4992771;28;20026;-85
2022/09/05 18:36:54;;;;;;;5.05;2.78;;;22.50;99.90;;;-144.05;47.36;125687.94;4993980;28;20034;-87
2022/09/05 18:39:23;;;;;;;6.07;2.22;;;22.30;99.90;;;-144.05;48.06;125687.94;4992431;28;20034;-82
2022/09/05 18:42:08;;;;;;;6.15;2.67;;;22.30;99.90;;;-144.05;48.60;125687.94;4992631;28;20034;-84
2022/09/05 18:45:11;;;;;;;4.93;2.45;;;22.30;99.90;;;-144.05;49.18;125687.94;5009376;28;20030;-87
2022/09/05 18:48:01;;;;;;;4.85;2.85;;;22.20;99.90;;;-144.05;49.78;125687.94;4988503;28;20598;-87
2022/09/05 18:50:35;;;;;;;4.68;2.35;;;22.10;99.90;;;-144.05;49.86;125687.94;5008379;28;20471;-88
2022/09/05 18:53:08;;;;;;;3.50;2.50;;;22.00;99.90;;;-144.05;50.10;125687.94;4991431;28;20088;-88
2022/09/05 18:55:38;;;;;;;6.30;2.90;;;21.80;99.90;;;-144.05;51.56;125687.94;4991650;28;20033;-86
2022/09/05 18:58:18;;;;;;;4.80;2.60;;;21.80;99.90;;;-144.05;51.76;125687.94;4991819;28;20495;-85
2022/09/05 19:00:48;;;;;;;4.80;2.53;;;21.70;99.90;;;-144.05;52.12;125687.94;4993542;28;20065;-85
2022/09/05 19:03:30;;;;;;;5.07;2.65;;;21.60;99.90;;;-144.05;52.60;125687.94;4991572;28;20030;-86
2022/09/05 19:06:17;;;;;;;4.10;3.08;;;21.50;99.90;;;-144.05;53.08;125687.94;4991804;28;20117;-86
2022/09/05 19:08:56;;;;;;;4.85;2.85;;;21.40;99.90;;;-144.05;53.02;125687.94;4991599;28;20418;-86
2022/09/05 19:11:59;;;;;;;7.20;2.92;;;21.30;99.90;;;-144.05;52.70;125687.94;4992337;28;20037;-88
2022/09/05 19:14:52;;;;;;;5.07;2.90;;;21.20;99.90;;;-144.05;52.63;125687.94;4991243;28;20379;-86
2022/09/05 19:17:58;;;;;;;4.15;2.42;;;21.20;99.90;;;-144.05;52.68;125687.94;5012384;28;20123;-89
2022/09/05 19:20:50;;;;;;;7.97;3.08;;;21.20;99.90;;;-144.05;52.61;125687.94;5013668;28;20030;-88
2022/09/05 19:23:26;;;;;;;4.50;2.60;;;21.30;99.90;;;-144.05;52.53;125687.94;5012685;28;20056;-90